createdAt,value
2017-10-05T00:00:01.784Z,14.3
2017-10-05T00:01:03.192Z,14.2
2017-10-05T00:02:04.594Z,14.2
2017-10-05T00:03:05.990Z,14.3
2017-10-05T00:04:07.391Z,14.2
2017-10-05T00:05:08.790Z,14.3
2017-10-05T00:06:10.196Z,14.3
2017-10-05T00:07:11.600Z,14.3
2017-10-05T00:08:13.004Z,14.2
2017-10-05T00:09:14.410Z,14.2
2017-10-05T00:10:15.808Z,14.3
2017-10-05T00:11:17.217Z,14.2
2017-10-05T00:12:18.628Z,14.3
2017-10-05T00:13:20.071Z,14.3
2017-10-05T00:14:21.468Z,14.3
2017-10-05T00:15:22.873Z,14.2
2017-10-05T00:16:24.287Z,14.3
2017-10-05T00:17:25.685Z,14.3
2017-10-05T00:18:27.101Z,14.3
2017-10-05T00:19:28.500Z,14.2
2017-10-05T00:20:29.897Z,14.3
2017-10-05T00:21:31.293Z,14.3
2017-10-05T00:22:32.696Z,14.3
2017-10-05T00:23:34.098Z,14.3
2017-10-05T00:24:35.506Z,14.3
2017-10-05T00:25:36.916Z,14.3
2017-10-05T00:26:38.320Z,14.3
2017-10-05T00:27:39.722Z,14.3
2017-10-05T00:28:41.123Z,14.3
2017-10-05T00:29:42.521Z,14.2
2017-10-05T00:30:43.921Z,14.3
2017-10-05T00:31:45.332Z,14.3
2017-10-05T00:32:46.728Z,14.4
2017-10-05T00:33:48.136Z,14.4
2017-10-05T00:34:49.530Z,14.4
2017-10-05T00:35:50.926Z,14.3
2017-10-05T00:36:52.335Z,14.4
2017-10-05T00:37:53.736Z,14.4
2017-10-05T00:38:55.142Z,14.4
2017-10-05T00:39:56.544Z,14.3
2017-10-05T00:40:57.938Z,14.2
2017-10-05T00:41:59.336Z,14.4
2017-10-05T00:43:00.748Z,14.4
2017-10-05T00:44:02.166Z,14.4
2017-10-05T00:45:03.567Z,14.4
2017-10-05T00:46:05.897Z,14.3
2017-10-05T00:47:07.300Z,14.4
2017-10-05T00:48:08.717Z,14.3
2017-10-05T00:49:10.116Z,14.3
2017-10-05T00:50:11.511Z,14.4
2017-10-05T00:51:12.912Z,14.4
2017-10-05T00:52:14.332Z,14.3
2017-10-05T00:53:15.712Z,14.3
2017-10-05T00:54:17.122Z,14.4
2017-10-05T00:55:18.544Z,14.3
2017-10-05T00:56:19.954Z,14.4
2017-10-05T00:57:21.349Z,14.4
2017-10-05T00:58:22.762Z,14.4
2017-10-05T00:59:24.225Z,14.3
2017-10-05T01:00:25.625Z,14.3
2017-10-05T01:01:27.022Z,14.3
2017-10-05T01:02:28.422Z,14.3
2017-10-05T01:03:29.818Z,14.3
2017-10-05T01:04:31.226Z,14.3
2017-10-05T01:05:32.626Z,14.3
2017-10-05T01:06:34.037Z,14.4
2017-10-05T01:07:35.441Z,14.3
2017-10-05T01:08:36.838Z,14.4
2017-10-05T01:09:38.240Z,14.4
2017-10-05T01:10:39.644Z,14.4
2017-10-05T01:11:41.058Z,14.3
2017-10-05T01:12:42.467Z,14.3
2017-10-05T01:13:43.852Z,14.4
2017-10-05T01:14:45.253Z,14.4
2017-10-05T01:15:46.656Z,14.4
2017-10-05T01:16:48.058Z,14.4
2017-10-05T01:17:49.464Z,14.4
2017-10-05T01:18:50.871Z,14.3
2017-10-05T01:19:52.273Z,14.3
2017-10-05T01:20:53.686Z,14.3
2017-10-05T01:21:55.086Z,14.4
2017-10-05T01:22:56.481Z,14.4
2017-10-05T01:23:57.904Z,14.4
2017-10-05T01:24:59.309Z,14.5
2017-10-05T01:26:00.731Z,14.4
2017-10-05T01:27:02.129Z,14.4
2017-10-05T01:28:03.531Z,14.4
2017-10-05T01:29:04.959Z,14.4
2017-10-05T01:30:06.356Z,14.4
2017-10-05T01:31:07.765Z,14.4
2017-10-05T01:32:09.161Z,14.4
2017-10-05T01:33:10.559Z,14.5
2017-10-05T01:34:11.957Z,14.4
2017-10-05T01:35:13.355Z,14.4
2017-10-05T01:36:14.761Z,14.4
2017-10-05T01:37:16.175Z,14.4
2017-10-05T01:38:17.581Z,14.3
2017-10-05T01:39:18.983Z,14.4
2017-10-05T01:40:20.382Z,14.4
2017-10-05T01:41:21.785Z,14.3
2017-10-05T01:42:23.195Z,14.3
2017-10-05T01:43:24.603Z,14.3
2017-10-05T01:44:26.004Z,14.3
2017-10-05T01:45:27.399Z,14.3
2017-10-05T01:46:28.797Z,14.3
2017-10-05T01:47:30.200Z,14.3
2017-10-05T01:48:31.593Z,14.3
2017-10-05T01:49:33.010Z,14.3
2017-10-05T01:50:34.420Z,14.3
2017-10-05T01:51:35.821Z,14.3
2017-10-05T01:52:37.220Z,14.2
2017-10-05T01:53:38.619Z,14.2
2017-10-05T01:54:40.019Z,14.3
2017-10-05T01:55:41.418Z,14.3
2017-10-05T01:56:42.818Z,14.3
2017-10-05T01:57:44.546Z,14.2
2017-10-05T01:58:45.947Z,14.2
2017-10-05T01:59:47.354Z,14.2
2017-10-05T02:00:48.752Z,14.1
2017-10-05T02:01:50.146Z,14.1
2017-10-05T02:02:51.554Z,14.0
2017-10-05T02:03:52.946Z,14.0
2017-10-05T02:04:54.348Z,14.1
2017-10-05T02:05:55.753Z,14.0
2017-10-05T02:06:57.150Z,14.0
2017-10-05T02:07:58.549Z,14.0
2017-10-05T02:08:59.955Z,14.0
2017-10-05T02:10:01.360Z,14.0
2017-10-05T02:11:02.759Z,14.0
2017-10-05T02:12:04.159Z,14.0
2017-10-05T02:13:05.561Z,14.0
2017-10-05T02:14:06.968Z,14.0
2017-10-05T02:15:08.370Z,14.0
2017-10-05T02:16:09.764Z,14.0
2017-10-05T02:17:11.169Z,14.0
2017-10-05T02:18:12.569Z,14.1
2017-10-05T02:19:13.975Z,14.2
2017-10-05T02:20:15.372Z,14.1
2017-10-05T02:21:16.790Z,14.1
2017-10-05T02:22:18.188Z,14.2
2017-10-05T02:23:19.602Z,14.1
2017-10-05T02:24:21.001Z,14.2
2017-10-05T02:25:22.420Z,14.3
2017-10-05T02:26:23.818Z,14.3
2017-10-05T02:27:25.227Z,14.2
2017-10-05T02:28:26.634Z,14.3
2017-10-05T02:29:28.034Z,14.3
2017-10-05T02:30:29.438Z,14.3
2017-10-05T02:31:30.837Z,14.2
2017-10-05T02:32:32.262Z,14.3
2017-10-05T02:33:33.664Z,14.2
2017-10-05T02:34:35.075Z,14.2
2017-10-05T02:35:36.472Z,14.2
2017-10-05T02:36:37.874Z,14.2
2017-10-05T02:37:39.279Z,14.3
2017-10-05T02:38:40.677Z,14.3
2017-10-05T02:39:42.086Z,14.2
2017-10-05T02:40:43.498Z,14.3
2017-10-05T02:41:44.898Z,14.3
2017-10-05T02:42:46.315Z,14.2
2017-10-05T02:43:47.722Z,14.2
2017-10-05T02:44:49.119Z,14.2
2017-10-05T02:45:50.517Z,14.2
2017-10-05T02:46:51.915Z,14.2
2017-10-05T02:47:53.312Z,14.1
2017-10-05T02:48:54.716Z,14.1
2017-10-05T02:49:56.122Z,14.1
2017-10-05T02:50:57.530Z,14.1
2017-10-05T02:51:58.929Z,14.1
2017-10-05T02:53:00.347Z,14.1
2017-10-05T02:54:01.745Z,14.2
2017-10-05T02:55:03.150Z,14.2
2017-10-05T02:56:04.560Z,14.1
2017-10-05T02:57:05.952Z,14.1
2017-10-05T02:58:07.354Z,14.1
2017-10-05T02:59:08.748Z,14.0
2017-10-05T03:00:10.155Z,14.1
2017-10-05T03:01:11.552Z,14.1
2017-10-05T03:02:12.954Z,14.1
2017-10-05T03:03:14.351Z,14.1
2017-10-05T03:04:15.747Z,14.1
2017-10-05T03:05:17.145Z,14.1
2017-10-05T03:06:18.548Z,14.1
2017-10-05T03:07:19.944Z,14.1
2017-10-05T03:08:21.356Z,14.1
2017-10-05T03:09:22.762Z,14.0
2017-10-05T03:10:24.177Z,14.1
2017-10-05T03:11:25.588Z,14.1
2017-10-05T03:12:26.988Z,14.1
2017-10-05T03:13:28.409Z,14.2
2017-10-05T03:14:29.813Z,14.1
2017-10-05T03:15:31.222Z,14.1
2017-10-05T03:16:32.641Z,14.1
2017-10-05T03:17:34.038Z,14.1
2017-10-05T03:18:35.433Z,14.2
2017-10-05T03:19:36.831Z,14.1
2017-10-05T03:20:38.276Z,14.2
2017-10-05T03:21:39.686Z,14.2
2017-10-05T03:22:41.098Z,14.2
2017-10-05T03:23:42.500Z,14.2
2017-10-05T03:24:43.902Z,14.2
2017-10-05T03:25:45.299Z,14.1
2017-10-05T03:26:46.702Z,14.1
2017-10-05T03:27:48.108Z,14.1
2017-10-05T03:28:49.516Z,14.1
2017-10-05T03:29:50.935Z,14.1
2017-10-05T03:30:52.336Z,14.1
2017-10-05T03:31:53.735Z,14.0
2017-10-05T03:32:55.133Z,14.0
2017-10-05T03:33:56.548Z,14.0
2017-10-05T03:34:57.952Z,13.9
2017-10-05T03:35:59.348Z,13.9
2017-10-05T03:37:00.752Z,13.9
2017-10-05T03:38:02.163Z,13.9
2017-10-05T03:39:03.566Z,13.9
2017-10-05T03:40:04.960Z,13.8
2017-10-05T03:41:06.359Z,13.9
2017-10-05T03:42:07.766Z,13.8
2017-10-05T03:43:09.169Z,13.8
2017-10-05T03:44:10.711Z,13.8
2017-10-05T03:45:12.114Z,13.8
2017-10-05T03:46:13.513Z,13.8
2017-10-05T03:47:14.913Z,13.8
2017-10-05T03:48:16.308Z,13.8
2017-10-05T03:49:17.707Z,13.8
2017-10-05T03:50:19.105Z,13.7
2017-10-05T03:51:20.505Z,13.8
2017-10-05T03:52:21.915Z,13.6
2017-10-05T03:53:23.319Z,13.6
2017-10-05T03:54:24.717Z,13.6
2017-10-05T03:55:26.122Z,13.6
2017-10-05T03:56:27.520Z,13.6
2017-10-05T03:57:28.916Z,13.7
2017-10-05T03:58:30.324Z,13.7
2017-10-05T03:59:31.723Z,13.6
2017-10-05T04:00:33.122Z,13.6
2017-10-05T04:01:34.521Z,13.6
2017-10-05T04:02:35.923Z,13.5
2017-10-05T04:03:37.525Z,13.6
2017-10-05T04:04:38.936Z,13.5
2017-10-05T04:05:40.334Z,13.6
2017-10-05T04:06:41.734Z,13.5
2017-10-05T04:07:43.135Z,13.5
2017-10-05T04:08:44.738Z,13.6
2017-10-05T04:09:46.136Z,13.5
2017-10-05T04:10:47.534Z,13.6
2017-10-05T04:11:48.943Z,13.6
2017-10-05T04:12:50.356Z,13.6
2017-10-05T04:13:51.755Z,13.6
2017-10-05T04:14:53.155Z,13.6
2017-10-05T04:15:55.237Z,13.5
2017-10-05T04:16:56.649Z,13.6
2017-10-05T04:17:58.109Z,13.6
2017-10-05T04:18:59.549Z,13.5
2017-10-05T04:20:00.975Z,13.5
2017-10-05T04:21:02.383Z,13.5
2017-10-05T04:22:03.789Z,13.6
2017-10-05T04:23:05.193Z,13.5
2017-10-05T04:24:07.444Z,13.6
2017-10-05T04:25:08.837Z,13.5
2017-10-05T04:26:10.231Z,13.5
2017-10-05T04:27:11.630Z,13.5
2017-10-05T04:28:13.048Z,13.5
2017-10-05T04:29:14.447Z,13.5
2017-10-05T04:30:15.843Z,13.5
2017-10-05T04:31:17.241Z,13.5
2017-10-05T04:32:18.644Z,13.4
2017-10-05T04:33:20.041Z,13.5
2017-10-05T04:34:21.451Z,13.4
2017-10-05T04:35:22.862Z,13.5
2017-10-05T04:36:24.259Z,13.5
2017-10-05T04:37:25.683Z,13.5
2017-10-05T04:38:27.081Z,13.4
2017-10-05T04:39:28.488Z,13.5
2017-10-05T04:40:29.883Z,13.4
2017-10-05T04:41:31.283Z,13.4
2017-10-05T04:42:32.681Z,13.4
2017-10-05T04:43:34.091Z,13.5
2017-10-05T04:44:35.486Z,13.5
2017-10-05T04:45:36.892Z,13.4
2017-10-05T04:46:38.290Z,13.4
2017-10-05T04:47:39.689Z,13.4
2017-10-05T04:48:41.258Z,13.4
2017-10-05T04:49:42.752Z,13.3
2017-10-05T04:50:44.240Z,13.4
2017-10-05T04:51:45.695Z,13.3
2017-10-05T04:52:47.091Z,13.4
2017-10-05T04:53:48.490Z,13.4
2017-10-05T04:54:49.892Z,13.4
2017-10-05T04:55:51.294Z,13.4
2017-10-05T04:56:52.704Z,13.4
2017-10-05T04:57:54.136Z,13.4
2017-10-05T04:58:55.545Z,13.4
2017-10-05T04:59:56.949Z,13.5
2017-10-05T05:00:58.345Z,13.4
2017-10-05T05:01:59.745Z,13.4
2017-10-05T05:03:01.166Z,13.4
2017-10-05T05:04:02.550Z,13.4
2017-10-05T05:05:03.947Z,13.3
2017-10-05T05:06:05.340Z,13.3
2017-10-05T05:07:06.739Z,13.4
2017-10-05T05:08:08.144Z,13.3
2017-10-05T05:09:09.562Z,13.3
2017-10-05T05:10:10.964Z,13.4
2017-10-05T05:11:12.368Z,13.4
2017-10-05T05:12:13.765Z,13.4
2017-10-05T05:13:15.174Z,13.4
2017-10-05T05:14:16.571Z,13.3
2017-10-05T05:15:17.966Z,13.3
2017-10-05T05:16:19.364Z,13.4
2017-10-05T05:17:20.759Z,13.4
2017-10-05T05:18:22.171Z,13.3
2017-10-05T05:19:23.608Z,13.4
2017-10-05T05:20:25.003Z,13.3
2017-10-05T05:21:26.398Z,13.3
2017-10-05T05:22:27.825Z,13.2
2017-10-05T05:23:29.223Z,13.3
2017-10-05T05:24:30.630Z,13.3
2017-10-05T05:25:32.034Z,13.2
2017-10-05T05:26:33.450Z,13.2
2017-10-05T05:27:34.846Z,13.2
2017-10-05T05:28:36.243Z,13.2
2017-10-05T05:29:37.656Z,13.2
2017-10-05T05:30:39.067Z,13.2
2017-10-05T05:31:40.464Z,13.3
2017-10-05T05:32:41.867Z,13.3
2017-10-05T05:33:43.264Z,13.2
2017-10-05T05:34:44.664Z,13.2
2017-10-05T05:35:46.104Z,13.3
2017-10-05T05:36:47.497Z,13.2
2017-10-05T05:37:48.905Z,13.3
2017-10-05T05:38:50.302Z,13.2
2017-10-05T05:39:51.707Z,13.3
2017-10-05T05:40:53.101Z,13.2
2017-10-05T05:41:54.509Z,13.3
2017-10-05T05:42:55.930Z,13.3
2017-10-05T05:43:57.327Z,13.2
2017-10-05T05:44:58.740Z,13.3
2017-10-05T05:46:00.140Z,13.2
2017-10-05T05:47:01.547Z,13.3
2017-10-05T05:48:02.949Z,13.3
2017-10-05T05:49:04.363Z,13.3
2017-10-05T05:50:05.766Z,13.4
2017-10-05T05:51:07.170Z,13.3
2017-10-05T05:52:08.580Z,13.3
2017-10-05T05:53:09.982Z,13.3
2017-10-05T05:54:11.390Z,13.4
2017-10-05T05:55:12.787Z,13.4
2017-10-05T05:56:14.184Z,13.4
2017-10-05T05:57:15.590Z,13.4
2017-10-05T05:58:16.989Z,13.3
2017-10-05T05:59:18.389Z,13.3
2017-10-05T06:00:19.814Z,13.4
2017-10-05T06:01:21.226Z,13.4
2017-10-05T06:02:22.638Z,13.4
2017-10-05T06:03:24.046Z,13.4
2017-10-05T06:04:25.446Z,13.4
2017-10-05T06:05:26.852Z,13.4
2017-10-05T06:06:28.256Z,13.4
2017-10-05T06:07:29.660Z,13.5
2017-10-05T06:08:31.059Z,13.5
2017-10-05T06:09:32.456Z,13.5
2017-10-05T06:10:33.867Z,13.6
2017-10-05T06:11:35.252Z,13.5
2017-10-05T06:12:36.649Z,13.6
2017-10-05T06:13:38.045Z,13.5
2017-10-05T06:14:39.446Z,13.5
2017-10-05T06:15:40.843Z,13.5
2017-10-05T06:16:42.251Z,13.6
2017-10-05T06:17:43.646Z,13.5
2017-10-05T06:18:45.051Z,13.5
2017-10-05T06:19:46.501Z,13.5
2017-10-05T06:20:47.897Z,13.5
2017-10-05T06:21:49.290Z,13.6
2017-10-05T06:22:50.694Z,13.6
2017-10-05T06:23:52.097Z,13.5
2017-10-05T06:24:53.492Z,13.5
2017-10-05T06:25:54.903Z,13.5
2017-10-05T06:26:56.308Z,13.5
2017-10-05T06:27:57.724Z,13.6
2017-10-05T06:28:59.126Z,13.5
2017-10-05T06:30:00.536Z,13.6
2017-10-05T06:31:01.935Z,13.5
2017-10-05T06:32:03.339Z,13.6
2017-10-05T06:33:04.736Z,13.6
2017-10-05T06:34:06.141Z,13.7
2017-10-05T06:35:07.540Z,13.6
2017-10-05T06:36:08.967Z,13.6
2017-10-05T06:37:10.372Z,13.6
2017-10-05T06:38:11.769Z,13.7
2017-10-05T06:39:13.170Z,13.6
2017-10-05T06:40:14.564Z,13.6
2017-10-05T06:41:15.964Z,13.6
2017-10-05T06:42:17.375Z,13.7
2017-10-05T06:43:18.779Z,13.7
2017-10-05T06:44:20.180Z,13.6
2017-10-05T06:45:21.580Z,13.7
2017-10-05T06:46:22.975Z,13.6
2017-10-05T06:47:24.384Z,13.6
2017-10-05T06:48:25.782Z,13.7
2017-10-05T06:49:27.182Z,13.7
2017-10-05T06:50:28.590Z,13.6
2017-10-05T06:51:29.993Z,13.6
2017-10-05T06:52:31.399Z,13.6
2017-10-05T06:53:32.804Z,13.6
2017-10-05T06:54:34.202Z,13.8
2017-10-05T06:55:35.610Z,13.6
2017-10-05T06:56:37.014Z,13.7
2017-10-05T06:57:38.415Z,13.7
2017-10-05T06:58:39.817Z,13.7
2017-10-05T06:59:41.218Z,13.8
2017-10-05T07:00:42.617Z,13.7
2017-10-05T07:01:44.013Z,13.8
2017-10-05T07:02:45.413Z,13.8
2017-10-05T07:03:46.822Z,13.7
2017-10-05T07:04:48.230Z,13.8
2017-10-05T07:05:49.632Z,13.8
2017-10-05T07:06:51.032Z,13.8
2017-10-05T07:07:52.440Z,13.8
2017-10-05T07:10:02.065Z,13.8
2017-10-05T07:11:03.469Z,13.8
2017-10-05T07:12:04.876Z,13.8
2017-10-05T07:13:06.282Z,13.9
2017-10-05T07:14:07.686Z,13.8
2017-10-05T07:15:09.088Z,13.8
2017-10-05T07:16:10.488Z,13.8
2017-10-05T07:17:12.012Z,13.9
2017-10-05T07:18:13.419Z,13.9
2017-10-05T07:19:14.823Z,13.9
2017-10-05T07:20:16.237Z,13.9
2017-10-05T07:21:17.643Z,13.9
2017-10-05T07:22:19.058Z,14.0
2017-10-05T07:23:20.462Z,13.9
2017-10-05T07:24:21.865Z,14.0
2017-10-05T07:25:23.264Z,13.9
2017-10-05T07:26:24.677Z,14.0
2017-10-05T07:27:26.079Z,14.0
2017-10-05T07:28:27.495Z,14.0
2017-10-05T07:29:28.919Z,14.1
2017-10-05T07:30:30.322Z,14.1
2017-10-05T07:31:31.724Z,14.1
2017-10-05T07:32:33.139Z,14.1
2017-10-05T07:33:34.548Z,14.1
2017-10-05T07:34:35.954Z,14.1
2017-10-05T07:35:37.368Z,14.1
2017-10-05T07:36:38.767Z,14.1
2017-10-05T07:37:40.181Z,14.2
2017-10-05T07:38:41.585Z,14.3
2017-10-05T07:39:42.986Z,14.3
2017-10-05T07:40:44.387Z,14.3
2017-10-05T07:41:45.833Z,14.3
2017-10-05T07:42:47.236Z,14.3
2017-10-05T07:43:48.638Z,14.2
2017-10-05T07:44:50.037Z,14.3
2017-10-05T07:45:51.448Z,14.4
2017-10-05T07:46:52.851Z,14.3
2017-10-05T07:47:54.258Z,14.3
2017-10-05T07:48:55.657Z,14.4
2017-10-05T07:49:57.071Z,14.4
2017-10-05T07:50:58.467Z,14.4
2017-10-05T07:51:59.878Z,14.4
2017-10-05T07:53:01.276Z,14.4
2017-10-05T07:54:02.686Z,14.3
2017-10-05T07:55:04.085Z,14.5
2017-10-05T07:56:05.489Z,14.5
2017-10-05T07:57:06.890Z,14.6
2017-10-05T07:58:08.300Z,14.4
2017-10-05T07:59:09.702Z,14.6
2017-10-05T08:00:11.099Z,14.6
2017-10-05T08:01:12.500Z,14.6
2017-10-05T08:02:13.903Z,14.7
2017-10-05T08:03:15.308Z,14.7
2017-10-05T08:04:16.711Z,14.7
2017-10-05T08:05:18.115Z,14.7
2017-10-05T08:06:19.518Z,14.7
2017-10-05T08:07:20.920Z,14.7
2017-10-05T08:08:22.333Z,14.8
2017-10-05T08:09:23.742Z,14.8
2017-10-05T08:10:25.151Z,14.7
2017-10-05T08:11:26.553Z,14.8
2017-10-05T08:12:27.970Z,14.8
2017-10-05T08:13:29.373Z,14.9
2017-10-05T08:14:30.773Z,14.9
2017-10-05T08:15:32.178Z,14.9
2017-10-05T08:16:33.577Z,14.9
2017-10-05T08:17:34.980Z,14.9
2017-10-05T08:18:36.400Z,14.9
2017-10-05T08:19:37.792Z,14.9
2017-10-05T08:20:39.195Z,14.9
2017-10-05T08:21:40.596Z,14.9
2017-10-05T08:22:42.001Z,14.9
2017-10-05T08:23:43.399Z,15.0
2017-10-05T08:24:44.808Z,14.9
2017-10-05T08:25:46.212Z,14.9
2017-10-05T08:26:47.633Z,14.9
2017-10-05T08:27:49.047Z,14.9
2017-10-05T08:28:50.444Z,15.0
2017-10-05T08:29:51.856Z,15.0
2017-10-05T08:30:53.262Z,14.9
2017-10-05T08:31:54.666Z,15.0
2017-10-05T08:32:56.071Z,14.9
2017-10-05T08:33:57.477Z,15.0
2017-10-05T08:34:58.883Z,14.9
2017-10-05T08:36:00.292Z,15.0
2017-10-05T08:37:01.703Z,15.0
2017-10-05T08:38:03.100Z,14.9
2017-10-05T08:39:04.513Z,15.1
2017-10-05T08:40:05.920Z,15.1
2017-10-05T08:41:07.320Z,15.0
2017-10-05T08:42:08.734Z,15.0
2017-10-05T08:43:10.138Z,15.1
2017-10-05T08:44:11.541Z,15.0
2017-10-05T08:45:12.941Z,15.1
2017-10-05T08:46:14.342Z,15.1
2017-10-05T08:47:15.742Z,15.1
2017-10-05T08:48:17.142Z,15.0
2017-10-05T08:49:18.553Z,15.1
2017-10-05T08:50:19.966Z,15.1
2017-10-05T08:51:21.375Z,15.1
2017-10-05T08:52:22.776Z,15.2
2017-10-05T08:53:24.189Z,15.2
2017-10-05T08:54:25.587Z,15.2
2017-10-05T08:55:26.983Z,15.2
2017-10-05T08:56:28.384Z,15.1
2017-10-05T08:57:29.785Z,15.2
2017-10-05T08:58:31.184Z,15.2
2017-10-05T08:59:32.587Z,15.2
2017-10-05T09:00:33.987Z,15.2
2017-10-05T09:01:35.395Z,15.2
2017-10-05T09:02:36.803Z,15.2
2017-10-05T09:03:38.196Z,15.2
2017-10-05T09:04:39.600Z,15.3
2017-10-05T09:05:41.004Z,15.3
2017-10-05T09:06:42.408Z,15.3
2017-10-05T09:07:43.815Z,15.3
2017-10-05T09:08:45.221Z,15.3
2017-10-05T09:09:46.618Z,15.4
2017-10-05T09:10:48.021Z,15.4
2017-10-05T09:11:49.427Z,15.5
2017-10-05T09:12:50.830Z,15.6
2017-10-05T09:13:52.246Z,15.6
2017-10-05T09:14:53.649Z,15.6
2017-10-05T09:15:55.059Z,15.6
2017-10-05T09:16:56.465Z,15.6
2017-10-05T09:17:57.872Z,15.7
2017-10-05T09:18:59.282Z,15.7
2017-10-05T09:20:00.690Z,15.7
2017-10-05T09:21:02.092Z,15.7
2017-10-05T09:22:03.493Z,15.7
2017-10-05T09:23:04.898Z,15.6
2017-10-05T09:24:06.297Z,15.6
2017-10-05T09:25:07.698Z,15.6
2017-10-05T09:26:09.101Z,15.6
2017-10-05T09:27:10.509Z,15.6
2017-10-05T09:28:11.921Z,15.6
2017-10-05T09:29:13.325Z,15.6
2017-10-05T09:30:14.727Z,15.6
2017-10-05T09:31:16.131Z,15.6
2017-10-05T09:32:17.535Z,15.7
2017-10-05T09:33:18.940Z,15.7
2017-10-05T09:34:20.344Z,15.7
2017-10-05T09:35:21.751Z,15.9
2017-10-05T09:36:23.160Z,15.8
2017-10-05T09:37:24.597Z,15.8
2017-10-05T09:38:26.013Z,15.9
2017-10-05T09:39:27.403Z,15.9
2017-10-05T09:40:28.826Z,15.9
2017-10-05T09:41:30.224Z,16.0
2017-10-05T09:42:31.630Z,15.9
2017-10-05T09:43:33.030Z,15.9
2017-10-05T09:44:34.433Z,15.9
2017-10-05T09:45:35.835Z,15.9
2017-10-05T09:46:37.232Z,15.9
2017-10-05T09:47:38.635Z,15.9
2017-10-05T09:48:40.036Z,16.0
2017-10-05T09:49:41.436Z,15.9
2017-10-05T09:50:42.847Z,15.9
2017-10-05T09:51:44.252Z,15.9
2017-10-05T09:52:45.654Z,16.0
2017-10-05T09:53:47.054Z,16.0
2017-10-05T09:54:48.479Z,16.0
2017-10-05T09:55:49.879Z,16.0
2017-10-05T09:56:51.286Z,16.0
2017-10-05T09:57:52.687Z,15.9
2017-10-05T09:58:54.094Z,15.9
2017-10-05T09:59:55.511Z,15.9
2017-10-05T10:00:56.917Z,16.0
2017-10-05T10:01:58.318Z,16.0
2017-10-05T10:02:59.719Z,16.0
2017-10-05T10:04:01.124Z,16.0
2017-10-05T10:05:02.530Z,16.0
2017-10-05T10:06:03.945Z,16.1
2017-10-05T10:07:05.344Z,16.1
2017-10-05T10:08:06.747Z,16.1
2017-10-05T10:09:08.148Z,16.1
2017-10-05T10:10:09.555Z,16.1
2017-10-05T10:11:10.958Z,16.1
2017-10-05T10:12:12.367Z,16.1
2017-10-05T10:13:13.777Z,16.1
2017-10-05T10:14:15.178Z,16.1
2017-10-05T10:15:16.581Z,16.1
2017-10-05T10:16:17.983Z,16.1
2017-10-05T10:17:19.387Z,16.1
2017-10-05T10:18:20.798Z,16.2
2017-10-05T10:19:22.210Z,16.2
2017-10-05T10:20:23.643Z,16.2
2017-10-05T10:21:25.019Z,16.2
2017-10-05T10:22:26.421Z,16.3
2017-10-05T10:23:27.824Z,16.4
2017-10-05T10:24:29.225Z,16.4
2017-10-05T10:25:30.634Z,16.4
2017-10-05T10:26:32.046Z,16.4
2017-10-05T10:27:33.462Z,16.3
2017-10-05T10:28:34.875Z,16.3
2017-10-05T10:29:36.279Z,16.5
2017-10-05T10:30:37.688Z,16.4
2017-10-05T10:31:39.090Z,16.5
2017-10-05T10:32:40.497Z,16.4
2017-10-05T10:33:41.907Z,16.4
2017-10-05T10:34:43.311Z,16.4
2017-10-05T10:35:44.711Z,16.4
2017-10-05T10:36:46.114Z,16.4
2017-10-05T10:37:48.019Z,16.4
2017-10-05T10:38:49.426Z,16.4
2017-10-05T10:39:50.828Z,16.6
2017-10-05T10:40:52.235Z,16.6
2017-10-05T10:41:53.641Z,16.6
2017-10-05T10:42:55.050Z,16.6
2017-10-05T10:43:56.446Z,16.7
2017-10-05T10:44:57.853Z,16.7
2017-10-05T10:45:59.255Z,16.7
2017-10-05T10:47:00.665Z,16.7
2017-10-05T10:48:02.065Z,16.8
2017-10-05T10:49:03.473Z,16.7
2017-10-05T10:50:04.895Z,16.6
2017-10-05T10:51:06.275Z,16.6
2017-10-05T10:52:07.711Z,16.6
2017-10-05T10:53:09.115Z,16.6
2017-10-05T10:54:10.517Z,16.6
2017-10-05T10:55:11.933Z,16.6
2017-10-05T10:56:13.337Z,16.6
2017-10-05T10:57:14.746Z,16.6
2017-10-05T10:58:16.154Z,16.6
2017-10-05T10:59:17.559Z,16.6
2017-10-05T11:00:18.962Z,16.6
2017-10-05T11:01:20.368Z,16.7
2017-10-05T11:02:21.778Z,16.7
2017-10-05T11:03:23.182Z,16.7
2017-10-05T11:04:24.587Z,16.7
2017-10-05T11:05:25.991Z,16.8
2017-10-05T11:06:27.392Z,16.7
2017-10-05T11:07:28.825Z,16.7
2017-10-05T11:08:30.255Z,16.7
2017-10-05T11:09:31.665Z,16.7
2017-10-05T11:10:33.082Z,16.7
2017-10-05T11:11:34.486Z,16.5
2017-10-05T11:12:35.898Z,16.7
2017-10-05T11:13:37.295Z,16.7
2017-10-05T11:14:38.701Z,16.9
2017-10-05T11:15:40.106Z,16.9
2017-10-05T11:16:41.513Z,16.9
2017-10-05T11:17:42.926Z,16.9
2017-10-05T11:18:44.329Z,17.0
2017-10-05T11:19:45.746Z,17.0
2017-10-05T11:20:47.185Z,17.0
2017-10-05T11:21:48.563Z,17.0
2017-10-05T11:22:49.969Z,17.0
2017-10-05T11:23:51.376Z,17.0
2017-10-05T11:24:52.781Z,16.9
2017-10-05T11:25:54.179Z,16.8
2017-10-05T11:26:55.580Z,16.8
2017-10-05T11:27:56.979Z,16.6
2017-10-05T11:28:58.397Z,16.5
2017-10-05T11:29:59.818Z,16.3
2017-10-05T11:31:01.224Z,16.0
2017-10-05T11:32:02.637Z,15.7
2017-10-05T11:33:04.042Z,15.6
2017-10-05T11:34:05.765Z,15.6
2017-10-05T11:35:07.182Z,15.7
2017-10-05T11:36:08.618Z,15.5
2017-10-05T11:37:10.026Z,15.5
2017-10-05T11:38:11.443Z,15.4
2017-10-05T11:39:12.846Z,15.3
2017-10-05T11:40:14.245Z,15.3
2017-10-05T11:41:15.662Z,15.3
2017-10-05T11:42:17.068Z,15.2
2017-10-05T11:43:18.469Z,15.1
2017-10-05T11:44:19.871Z,15.0
2017-10-05T11:45:21.295Z,15.0
2017-10-05T11:46:22.685Z,15.0
2017-10-05T11:47:24.080Z,15.0
2017-10-05T11:48:25.487Z,15.1
2017-10-05T11:49:26.894Z,15.2
2017-10-05T11:50:28.308Z,15.2
2017-10-05T11:51:29.714Z,15.3
2017-10-05T11:52:31.183Z,15.3
2017-10-05T11:53:32.595Z,15.3
2017-10-05T11:54:34.006Z,15.4
2017-10-05T11:55:35.417Z,15.5
2017-10-05T11:56:36.817Z,15.6
2017-10-05T11:57:38.222Z,15.7
2017-10-05T11:58:39.643Z,15.7
2017-10-05T11:59:41.061Z,15.9
2017-10-05T12:00:42.460Z,15.8
2017-10-05T12:01:43.879Z,15.9
2017-10-05T12:02:45.277Z,16.0
2017-10-05T12:03:46.679Z,16.1
2017-10-05T12:04:48.090Z,16.1
2017-10-05T12:05:49.493Z,16.1
2017-10-05T12:06:50.907Z,16.2
2017-10-05T12:07:52.312Z,16.3
2017-10-05T12:08:53.720Z,16.4
2017-10-05T12:09:55.122Z,16.4
2017-10-05T12:10:56.527Z,16.3
2017-10-05T12:11:57.930Z,16.4
2017-10-05T12:12:59.330Z,16.5
2017-10-05T12:14:00.738Z,16.4
2017-10-05T12:15:02.162Z,16.3
2017-10-05T12:16:03.579Z,16.4
2017-10-05T12:17:04.981Z,16.3
2017-10-05T12:18:06.386Z,16.5
2017-10-05T12:19:07.786Z,16.5
2017-10-05T12:20:09.198Z,16.4
2017-10-05T12:21:10.616Z,16.5
2017-10-05T12:22:12.025Z,16.5
2017-10-05T12:23:13.440Z,16.4
2017-10-05T12:24:14.855Z,16.5
2017-10-05T12:25:16.258Z,16.4
2017-10-05T12:26:17.669Z,16.3
2017-10-05T12:27:19.073Z,16.1
2017-10-05T12:28:20.489Z,15.8
2017-10-05T12:29:21.902Z,15.6
2017-10-05T12:30:23.308Z,15.5
2017-10-05T12:31:24.717Z,15.4
2017-10-05T12:32:26.125Z,15.2
2017-10-05T12:33:27.534Z,15.0
2017-10-05T12:34:28.951Z,14.9
2017-10-05T12:35:30.370Z,14.7
2017-10-05T12:36:31.773Z,14.4
2017-10-05T12:37:33.184Z,14.1
2017-10-05T12:38:34.595Z,13.9
2017-10-05T12:39:35.990Z,13.8
2017-10-05T12:40:37.401Z,13.7
2017-10-05T12:41:38.818Z,13.6
2017-10-05T12:42:40.217Z,13.7
2017-10-05T12:43:41.621Z,13.6
2017-10-05T12:44:43.026Z,13.6
2017-10-05T12:45:44.420Z,13.6
2017-10-05T12:46:45.823Z,13.6
2017-10-05T12:47:47.235Z,13.6
2017-10-05T12:48:48.650Z,13.6
2017-10-05T12:49:50.073Z,13.5
2017-10-05T12:50:51.469Z,13.6
2017-10-05T12:51:52.877Z,13.5
2017-10-05T12:52:54.275Z,13.6
2017-10-05T12:53:55.687Z,13.4
2017-10-05T12:54:57.087Z,13.4
2017-10-05T12:55:58.491Z,13.5
2017-10-05T12:56:59.892Z,13.6
2017-10-05T12:58:01.293Z,13.4
2017-10-05T12:59:02.705Z,13.5
2017-10-05T13:00:04.102Z,13.5
2017-10-05T13:01:05.513Z,13.6
2017-10-05T13:02:06.919Z,13.6
2017-10-05T13:03:08.325Z,13.6
2017-10-05T13:04:09.729Z,13.6
2017-10-05T13:05:11.137Z,13.6
2017-10-05T13:06:12.543Z,13.6
2017-10-05T13:07:13.956Z,13.6
2017-10-05T13:08:15.359Z,13.8
2017-10-05T13:09:16.757Z,13.8
2017-10-05T13:10:18.177Z,13.8
2017-10-05T13:11:19.657Z,13.9
2017-10-05T13:12:21.068Z,13.9
2017-10-05T13:13:22.471Z,14.0
2017-10-05T13:14:23.878Z,14.0
2017-10-05T13:15:25.288Z,14.1
2017-10-05T13:16:26.786Z,14.0
2017-10-05T13:17:28.193Z,14.1
2017-10-05T13:18:29.801Z,14.2
2017-10-05T13:19:31.209Z,14.2
2017-10-05T13:20:32.606Z,14.3
2017-10-05T13:21:34.009Z,14.3
2017-10-05T13:22:35.407Z,14.4
2017-10-05T13:23:36.867Z,14.4
2017-10-05T13:24:38.270Z,14.6
2017-10-05T13:25:39.671Z,14.6
2017-10-05T13:26:41.073Z,14.7
2017-10-05T13:27:42.472Z,14.7
2017-10-05T13:28:43.888Z,14.9
2017-10-05T13:29:45.294Z,14.8
2017-10-05T13:30:46.714Z,14.9
2017-10-05T13:31:48.111Z,14.9
2017-10-05T13:32:49.520Z,14.9
2017-10-05T13:33:50.925Z,14.9
2017-10-05T13:34:52.332Z,14.9
2017-10-05T13:35:53.732Z,14.9
2017-10-05T13:36:55.135Z,14.8
2017-10-05T13:37:56.534Z,14.9